Time;durP1;ratioP1;P1;durP2;ratioP2;P2;SDS_P1;SDS_P2;PMS_P1;PMS_P2;Temp;Humidity;BMP_temperature;BMP_pressure;BME280_temperature;BME280_humidity;BME280_pressure;Samples;Min_cycle;Max_cycle;Signal;HPM_P1;HPM_P2
2024/01/25 00:02:21;;;;;;;0.10;0.10;;;23.30;45.00;;;;;;5010783;28;20576;-44
2024/01/25 00:04:52;;;;;;;0.10;0.10;;;23.30;45.00;;;;;;5009692;28;20584;-46
2024/01/25 00:07:23;;;;;;;0.08;0.08;;;23.30;44.90;;;;;;5011052;28;20227;-45
2024/01/25 00:09:55;;;;;;;0.10;0.10;;;23.30;44.90;;;;;;5010732;28;20208;-47
2024/01/25 00:12:26;;;;;;;0.00;0.00;;;23.30;44.90;;;;;;5010345;28;20235;-45
2024/01/25 00:14:56;;;;;;;0.00;0.00;;;23.30;44.90;;;;;;5009540;28;20208;-45
2024/01/25 00:17:27;;;;;;;0.00;0.00;;;23.30;44.80;;;;;;5010425;28;20201;-48
2024/01/25 00:19:58;;;;;;;0.00;0.00;;;23.30;44.80;;;;;;4991041;28;20193;-46
2024/01/25 00:22:28;;;;;;;0.00;0.00;;;23.30;44.80;;;;;;4990653;28;20205;-47
2024/01/25 00:25:02;;;;;;;0.00;0.00;;;23.30;44.80;;;;;;4991418;28;20630;-51
2024/01/25 00:27:32;;;;;;;0.00;0.00;;;23.30;44.70;;;;;;4990499;28;20208;-47
2024/01/25 00:30:04;;;;;;;0.10;0.10;;;23.30;44.70;;;;;;5007087;28;20201;-46
2024/01/25 00:32:35;;;;;;;0.03;0.03;;;23.30;44.70;;;;;;5009695;28;20228;-44
2024/01/25 00:35:07;;;;;;;0.10;0.10;;;23.30;44.70;;;;;;5010154;28;20207;-45
2024/01/25 00:37:38;;;;;;;0.05;0.05;;;23.30;44.60;;;;;;5009154;28;20284;-45
2024/01/25 00:40:13;;;;;;;0.10;0.10;;;23.30;44.50;;;;;;4997037;28;20185;-44
2024/01/25 00:42:48;;;;;;;0.00;0.00;;;23.30;44.40;;;;;;5009013;28;20207;-44
2024/01/25 00:45:19;;;;;;;0.00;0.00;;;23.30;44.40;;;;;;5010267;28;20205;-48
2024/01/25 00:47:51;;;;;;;0.10;0.10;;;23.30;44.30;;;;;;5009578;28;20700;-45
2024/01/25 00:50:23;;;;;;;0.00;0.00;;;23.30;44.30;;;;;;5010567;28;20216;-47
2024/01/25 00:52:55;;;;;;;0.00;0.00;;;23.30;44.40;;;;;;5009184;28;20697;-47
2024/01/25 00:55:28;;;;;;;0.05;0.05;;;23.30;44.40;;;;;;4993017;28;20208;-47
2024/01/25 00:57:59;;;;;;;0.00;0.00;;;23.40;44.40;;;;;;5013638;28;20205;-45
2024/01/25 01:00:31;;;;;;;0.00;0.00;;;23.40;44.30;;;;;;5013468;28;20205;-46
2024/01/25 01:03:03;;;;;;;0.10;0.10;;;23.40;44.30;;;;;;5013132;28;20217;-48
2024/01/25 01:05:33;;;;;;;0.00;0.00;;;23.40;44.30;;;;;;5012950;28;20235;-45
2024/01/25 01:08:04;;;;;;;0.00;0.00;;;23.40;44.20;;;;;;5012659;28;20232;-45
2024/01/25 01:10:37;;;;;;;0.00;0.00;;;23.40;44.00;;;;;;5013080;28;20604;-47
2024/01/25 01:13:08;;;;;;;0.00;0.00;;;23.40;44.00;;;;;;5012825;28;20240;-44
2024/01/25 01:15:38;;;;;;;0.00;0.00;;;23.40;44.00;;;;;;5012633;28;20200;-45
2024/01/25 01:18:09;;;;;;;0.00;0.00;;;23.40;43.90;;;;;;5012227;28;20207;-45
2024/01/25 01:20:40;;;;;;;0.00;0.00;;;23.50;43.90;;;;;;5012563;28;20742;-47
2024/01/25 01:23:10;;;;;;;0.00;0.00;;;23.50;43.90;;;;;;5012778;28;20243;-45
2024/01/25 01:25:43;;;;;;;0.00;0.00;;;23.50;43.90;;;;;;5012832;28;20200;-45
2024/01/25 01:28:14;;;;;;;0.00;0.00;;;23.50;43.80;;;;;;5012851;28;20207;-46
2024/01/25 01:30:45;;;;;;;0.00;0.00;;;23.50;43.70;;;;;;5012530;28;20197;-46
2024/01/25 01:33:16;;;;;;;0.10;0.10;;;23.50;43.60;;;;;;5012194;28;20314;-45
2024/01/25 01:35:47;;;;;;;0.00;0.00;;;23.50;43.60;;;;;;5011914;28;20195;-47
2024/01/25 01:38:17;;;;;;;0.00;0.00;;;23.50;43.50;;;;;;5012347;28;20207;-47
2024/01/25 01:40:50;;;;;;;0.00;0.00;;;23.60;43.50;;;;;;5012014;28;20609;-46
2024/01/25 01:43:24;;;;;;;0.00;0.00;;;23.60;43.50;;;;;;5011586;28;20216;-47
2024/01/25 01:45:56;;;;;;;0.10;0.10;;;23.60;43.40;;;;;;5012055;28;20196;-45
2024/01/25 01:48:27;;;;;;;0.00;0.00;;;23.60;43.40;;;;;;5012120;28;20540;-44
2024/01/25 01:50:58;;;;;;;0.10;0.10;;;23.70;43.40;;;;;;5013025;28;20205;-46
2024/01/25 01:53:31;;;;;;;0.00;0.00;;;23.60;43.50;;;;;;5012396;28;20630;-46
2024/01/25 01:56:04;;;;;;;0.08;0.08;;;23.60;43.50;;;;;;5012070;28;20201;-47
2024/01/25 01:58:35;;;;;;;0.00;0.00;;;23.70;43.30;;;;;;5012196;28;20637;-45
2024/01/25 02:01:06;;;;;;;0.10;0.10;;;23.70;43.20;;;;;;5012360;28;20197;-45
2024/01/25 02:03:37;;;;;;;0.00;0.00;;;23.70;43.20;;;;;;5012216;28;20711;-46
2024/01/25 02:06:08;;;;;;;0.10;0.10;;;23.70;43.10;;;;;;5011834;28;20192;-44
2024/01/25 02:08:39;;;;;;;0.00;0.00;;;23.70;42.90;;;;;;5011983;28;20201;-45
2024/01/25 02:11:15;;;;;;;0.08;0.08;;;23.70;43.00;;;;;;5011053;28;20192;-45
2024/01/25 02:13:47;;;;;;;0.00;0.00;;;23.80;43.00;;;;;;5011328;28;20600;-45
2024/01/25 02:16:17;;;;;;;0.00;0.00;;;23.70;42.90;;;;;;5011770;28;20252;-45
2024/01/25 02:18:48;;;;;;;0.00;0.00;;;23.70;42.80;;;;;;5011979;28;20211;-45
2024/01/25 02:21:19;;;;;;;0.00;0.00;;;23.80;43.00;;;;;;5011788;28;20204;-47
2024/01/25 02:23:52;;;;;;;0.00;0.00;;;23.80;43.00;;;;;;5011867;28;20316;-45
2024/01/25 02:26:23;;;;;;;0.00;0.00;;;23.80;42.90;;;;;;5012140;28;20205;-48
2024/01/25 02:28:53;;;;;;;0.08;0.08;;;23.80;42.90;;;;;;5011405;28;20201;-45
2024/01/25 02:31:24;;;;;;;0.10;0.10;;;23.80;42.80;;;;;;5010894;28;20216;-45
2024/01/25 02:33:55;;;;;;;0.00;0.00;;;23.80;42.90;;;;;;5010658;28;20233;-45
2024/01/25 02:36:26;;;;;;;0.03;0.03;;;23.80;42.80;;;;;;5011922;28;20196;-46
2024/01/25 02:38:59;;;;;;;0.08;0.08;;;23.80;42.80;;;;;;5011928;28;20197;-44
2024/01/25 02:41:31;;;;;;;0.00;0.00;;;23.90;42.90;;;;;;5011398;28;20560;-44
2024/01/25 02:44:04;;;;;;;0.00;0.00;;;23.90;42.90;;;;;;5011150;28;20227;-45
2024/01/25 02:46:35;;;;;;;0.00;0.00;;;23.90;42.90;;;;;;5011473;28;20205;-45
2024/01/25 02:49:05;;;;;;;0.05;0.05;;;23.90;42.90;;;;;;5011786;28;20753;-45
2024/01/25 02:51:36;;;;;;;0.00;0.00;;;24.00;43.00;;;;;;5011344;28;20197;-45
2024/01/25 02:54:09;;;;;;;0.00;0.00;;;24.00;43.00;;;;;;5010737;28;20232;-46
2024/01/25 02:56:39;;;;;;;0.00;0.00;;;24.00;43.00;;;;;;5011660;28;20200;-50
2024/01/25 02:59:10;;;;;;;0.00;0.00;;;24.00;43.00;;;;;;5011882;28;20192;-48
2024/01/25 03:01:45;;;;;;;0.00;0.00;;;24.00;42.90;;;;;;5011815;28;20197;-51
2024/01/25 03:04:16;;;;;;;0.10;0.10;;;24.10;43.00;;;;;;5011331;28;20600;-51
2024/01/25 03:06:46;;;;;;;0.00;0.00;;;24.10;42.90;;;;;;5011729;28;20243;-50
2024/01/25 03:09:21;;;;;;;0.00;0.00;;;24.10;43.00;;;;;;5011713;28;20197;-47
2024/01/25 03:11:51;;;;;;;0.00;0.00;;;24.10;42.90;;;;;;5012089;28;20203;-52
2024/01/25 03:14:22;;;;;;;0.08;0.08;;;24.20;43.00;;;;;;5011057;28;20610;-48
2024/01/25 03:16:53;;;;;;;0.00;0.00;;;24.20;42.90;;;;;;5010878;28;20205;-47
2024/01/25 03:19:25;;;;;;;0.00;0.00;;;24.20;43.00;;;;;;5010521;28;20205;-50
2024/01/25 03:21:56;;;;;;;0.00;0.00;;;24.20;42.90;;;;;;5005703;28;20205;-50
2024/01/25 03:24:29;;;;;;;0.00;0.00;;;24.20;42.90;;;;;;5007757;28;20224;-49
2024/01/25 03:26:59;;;;;;;0.00;0.00;;;24.30;42.90;;;;;;5007610;28;20204;-45
2024/01/25 03:29:30;;;;;;;0.00;0.00;;;24.30;42.90;;;;;;5007301;28;20205;-45
2024/01/25 03:32:01;;;;;;;0.08;0.08;;;24.30;42.80;;;;;;5006437;28;20200;-45
2024/01/25 03:34:31;;;;;;;0.10;0.10;;;24.30;42.70;;;;;;5007152;28;20232;-45
2024/01/25 03:37:02;;;;;;;0.00;0.00;;;24.40;42.70;;;;;;5007003;28;20215;-45
2024/01/25 03:39:34;;;;;;;0.05;0.05;;;24.40;42.60;;;;;;5009724;28;20205;-50
2024/01/25 03:42:05;;;;;;;0.00;0.00;;;24.40;43.10;;;;;;5010927;28;20230;-52
2024/01/25 03:44:36;;;;;;;0.00;0.00;;;24.50;42.50;;;;;;5011278;28;20701;-50
2024/01/25 03:47:07;;;;;;;0.00;0.00;;;24.50;42.30;;;;;;5010199;28;20244;-48
2024/01/25 03:49:37;;;;;;;0.00;0.00;;;24.50;42.10;;;;;;5010904;28;20604;-50
2024/01/25 03:52:09;;;;;;;0.10;0.10;;;24.60;42.00;;;;;;5011643;28;20200;-50
2024/01/25 03:54:41;;;;;;;0.00;0.00;;;24.60;41.80;;;;;;5010838;28;20274;-46
2024/01/25 03:57:12;;;;;;;0.00;0.00;;;24.60;41.70;;;;;;5010303;28;20200;-51
2024/01/25 03:59:42;;;;;;;0.00;0.00;;;24.60;41.60;;;;;;5009900;28;20211;-47
2024/01/25 04:02:13;;;;;;;0.05;0.05;;;24.60;41.30;;;;;;5010195;28;20199;-46
2024/01/25 04:04:44;;;;;;;0.10;0.10;;;24.70;41.10;;;;;;5009641;28;20603;-44
2024/01/25 04:07:14;;;;;;;0.00;0.00;;;24.70;41.00;;;;;;5009956;28;20196;-45
2024/01/25 04:09:47;;;;;;;0.00;0.00;;;24.70;41.00;;;;;;5009485;28;20197;-47
2024/01/25 04:12:18;;;;;;;0.00;0.00;;;24.70;41.10;;;;;;5009863;28;20673;-47
2024/01/25 04:14:48;;;;;;;0.08;0.08;;;24.70;41.10;;;;;;5010293;28;20700;-49
2024/01/25 04:17:19;;;;;;;0.10;0.10;;;24.70;41.70;;;;;;5008696;28;20200;-48
2024/01/25 04:19:50;;;;;;;0.00;0.00;;;24.80;41.00;;;;;;5008988;28;20200;-46
2024/01/25 04:22:20;;;;;;;0.00;0.00;;;24.80;40.80;;;;;;5008855;28;20209;-46
2024/01/25 04:24:53;;;;;;;0.00;0.00;;;24.80;40.90;;;;;;5010154;28;21010;-46
2024/01/25 04:27:23;;;;;;;0.00;0.00;;;24.80;40.70;;;;;;5007928;28;20287;-49
2024/01/25 04:29:54;;;;;;;0.00;0.00;;;24.90;40.60;;;;;;5010023;28;20205;-46
2024/01/25 04:32:25;;;;;;;0.00;0.00;;;24.90;40.70;;;;;;5007655;28;20950;-46
2024/01/25 04:34:55;;;;;;;0.03;0.03;;;24.90;40.50;;;;;;5009855;28;20204;-47
2024/01/25 04:37:26;;;;;;;0.10;0.10;;;24.90;40.20;;;;;;5010611;28;20205;-48
2024/01/25 04:39:59;;;;;;;0.00;0.00;;;25.00;40.30;;;;;;5008840;28;20247;-48
2024/01/25 04:42:29;;;;;;;0.00;0.00;;;25.00;40.20;;;;;;5009678;28;20545;-48
2024/01/25 04:45:00;;;;;;;0.00;0.00;;;25.00;40.20;;;;;;5009273;28;20541;-48
2024/01/25 04:47:31;;;;;;;0.00;0.00;;;25.00;39.90;;;;;;5009695;28;20682;-51
2024/01/25 04:50:01;;;;;;;0.00;0.00;;;25.10;39.80;;;;;;4994209;28;20207;-48
2024/01/25 04:52:32;;;;;;;0.00;0.00;;;25.10;39.70;;;;;;5010515;28;20299;-47
2024/01/25 04:55:04;;;;;;;0.00;0.00;;;25.10;39.60;;;;;;5009254;28;20327;-46
2024/01/25 04:57:35;;;;;;;0.00;0.00;;;25.10;39.40;;;;;;4990089;28;20193;-45
2024/01/25 05:00:07;;;;;;;0.00;0.00;;;25.10;39.30;;;;;;4990452;28;20212;-45
2024/01/25 05:02:38;;;;;;;0.00;0.00;;;25.10;39.40;;;;;;5005450;28;20205;-49
2024/01/25 05:05:08;;;;;;;0.00;0.00;;;25.10;39.30;;;;;;5009506;28;20665;-47
2024/01/25 05:07:39;;;;;;;0.00;0.00;;;25.20;39.50;;;;;;5007868;28;20203;-47
2024/01/25 05:10:12;;;;;;;0.00;0.00;;;25.20;39.40;;;;;;5008412;28;20200;-49
2024/01/25 05:12:43;;;;;;;0.00;0.00;;;25.20;39.20;;;;;;5008569;28;20539;-47
2024/01/25 05:15:14;;;;;;;0.00;0.00;;;25.20;39.30;;;;;;5009056;28;20726;-47
2024/01/25 05:17:45;;;;;;;0.00;0.00;;;25.30;39.30;;;;;;5008743;28;20197;-48
2024/01/25 05:20:17;;;;;;;0.00;0.00;;;25.30;39.30;;;;;;5008867;28;20212;-47
2024/01/25 05:22:48;;;;;;;0.00;0.00;;;25.30;39.10;;;;;;5009230;28;20224;-46
2024/01/25 05:25:20;;;;;;;0.00;0.00;;;25.30;39.10;;;;;;5009174;28;20210;-47
2024/01/25 05:27:51;;;;;;;0.00;0.00;;;25.30;38.90;;;;;;5009382;28;20204;-46
2024/01/25 05:30:22;;;;;;;0.10;0.10;;;25.40;39.00;;;;;;5008715;28;20201;-47
2024/01/25 05:32:54;;;;;;;0.00;0.00;;;25.40;38.80;;;;;;5009158;28;20708;-45
2024/01/25 05:35:25;;;;;;;0.05;0.05;;;25.40;38.60;;;;;;5008400;28;20203;-45
2024/01/25 05:37:55;;;;;;;0.00;0.00;;;25.40;38.40;;;;;;5008589;28;20209;-45
2024/01/25 05:40:28;;;;;;;0.00;0.00;;;25.40;38.30;;;;;;5007917;28;20411;-45
2024/01/25 05:42:58;;;;;;;0.00;0.00;;;25.40;38.30;;;;;;5008323;28;20593;-45
2024/01/25 05:45:29;;;;;;;0.00;0.00;;;25.50;38.60;;;;;;5009351;28;20197;-45
2024/01/25 05:48:00;;;;;;;0.00;0.00;;;25.40;38.70;;;;;;5006977;28;20212;-47
2024/01/25 05:50:30;;;;;;;0.00;0.00;;;25.50;38.80;;;;;;5008268;28;20209;-45
2024/01/25 05:53:01;;;;;;;0.00;0.00;;;25.50;38.80;;;;;;5008879;28;20217;-45
2024/01/25 05:55:33;;;;;;;0.00;0.00;;;25.50;38.80;;;;;;5008271;28;20208;-45
2024/01/25 05:58:04;;;;;;;0.10;0.10;;;25.50;38.60;;;;;;5008684;28;20203;-46
2024/01/25 06:00:35;;;;;;;0.00;0.00;;;25.50;39.00;;;;;;5008166;28;20223;-45
2024/01/25 06:03:06;;;;;;;0.05;0.05;;;25.50;38.80;;;;;;5006219;28;20420;-46
2024/01/25 06:05:36;;;;;;;0.00;0.00;;;25.60;38.90;;;;;;5008496;28;20197;-45
2024/01/25 06:08:07;;;;;;;0.00;0.00;;;25.60;38.90;;;;;;5007887;28;20200;-47
2024/01/25 06:10:40;;;;;;;0.00;0.00;;;25.60;39.00;;;;;;5007624;28;20219;-47
2024/01/25 06:13:11;;;;;;;0.00;0.00;;;25.60;39.10;;;;;;5007585;28;20221;-42
2024/01/25 06:15:41;;;;;;;0.00;0.00;;;25.60;39.10;;;;;;5007210;28;20196;-45
2024/01/25 06:18:12;;;;;;;0.00;0.00;;;25.60;39.70;;;;;;5007442;28;20211;-49
2024/01/25 06:20:43;;;;;;;0.00;0.00;;;25.60;38.90;;;;;;5008419;28;20201;-44
2024/01/25 06:23:18;;;;;;;0.10;0.10;;;25.60;38.70;;;;;;5008439;28;20662;-46
2024/01/25 06:25:50;;;;;;;0.00;0.00;;;25.60;38.80;;;;;;5007951;28;20219;-45
2024/01/25 06:28:21;;;;;;;0.00;0.00;;;25.60;38.80;;;;;;5008069;28;20197;-48
2024/01/25 06:30:52;;;;;;;0.00;0.00;;;25.60;38.90;;;;;;5008046;28;20205;-47
2024/01/25 06:33:22;;;;;;;0.00;0.00;;;25.60;38.90;;;;;;5007767;28;20221;-50
2024/01/25 06:35:53;;;;;;;0.00;0.00;;;25.60;38.90;;;;;;5008348;28;20228;-48
2024/01/25 06:38:24;;;;;;;0.00;0.00;;;25.60;38.90;;;;;;5007536;28;20274;-47
2024/01/25 06:40:56;;;;;;;0.00;0.00;;;25.60;38.90;;;;;;5007431;28;20204;-46
2024/01/25 06:43:27;;;;;;;0.00;0.00;;;25.70;38.90;;;;;;5006302;28;20696;-47
2024/01/25 06:45:58;;;;;;;0.00;0.00;;;25.60;38.80;;;;;;5008406;28;20205;-47
2024/01/25 06:48:28;;;;;;;0.00;0.00;;;25.70;38.90;;;;;;5008148;28;20209;-48
2024/01/25 06:51:00;;;;;;;0.00;0.00;;;25.70;39.10;;;;;;5008231;28;20559;-46
2024/01/25 06:53:31;;;;;;;0.00;0.00;;;25.70;39.10;;;;;;5008645;28;20600;-45
2024/01/25 06:56:03;;;;;;;0.00;0.00;;;25.70;39.10;;;;;;5008042;28;20763;-45
2024/01/25 06:58:36;;;;;;;0.00;0.00;;;25.70;38.90;;;;;;5007938;28;20211;-46
2024/01/25 07:01:07;;;;;;;0.03;0.03;;;25.70;39.40;;;;;;5007821;28;20259;-48
2024/01/25 07:03:38;;;;;;;0.00;0.00;;;25.70;38.80;;;;;;4994910;28;20236;-44
2024/01/25 07:06:09;;;;;;;0.00;0.00;;;25.70;38.90;;;;;;4991618;28;20197;-44
2024/01/25 07:08:40;;;;;;;0.00;0.00;;;25.80;39.00;;;;;;5006596;28;20204;-46
2024/01/25 07:11:12;;;;;;;0.00;0.00;;;25.80;39.00;;;;;;5007398;28;20197;-44
2024/01/25 07:13:44;;;;;;;0.00;0.00;;;25.80;39.00;;;;;;5012007;28;20231;-46
2024/01/25 07:16:15;;;;;;;0.10;0.10;;;25.80;39.00;;;;;;5015162;28;20224;-44
2024/01/25 07:18:46;;;;;;;0.00;0.00;;;25.80;39.00;;;;;;5014916;28;20201;-45
2024/01/25 07:21:16;;;;;;;0.00;0.00;;;25.80;39.10;;;;;;5015376;28;20220;-46
2024/01/25 07:23:47;;;;;;;0.00;0.00;;;25.80;38.90;;;;;;5014615;28;20574;-48
2024/01/25 07:26:22;;;;;;;0.00;0.00;;;25.80;38.60;;;;;;5014962;28;20204;-46
2024/01/25 07:28:57;;;;;;;0.00;0.00;;;25.80;38.40;;;;;;5015429;28;20196;-48
2024/01/25 07:31:29;;;;;;;0.00;0.00;;;25.80;38.50;;;;;;5014376;28;20275;-47
2024/01/25 07:33:59;;;;;;;0.00;0.00;;;25.80;38.40;;;;;;5014267;28;20239;-47
2024/01/25 07:36:30;;;;;;;0.00;0.00;;;25.70;38.40;;;;;;5014711;28;20204;-46
2024/01/25 07:39:01;;;;;;;0.00;0.00;;;25.70;38.70;;;;;;5014512;28;20196;-47
2024/01/25 07:41:33;;;;;;;0.00;0.00;;;25.70;38.50;;;;;;5014886;28;20197;-46
2024/01/25 07:44:04;;;;;;;0.00;0.00;;;25.70;38.50;;;;;;5014457;28;20228;-48
2024/01/25 07:46:34;;;;;;;0.00;0.00;;;25.70;38.50;;;;;;5014648;28;20690;-48
2024/01/25 07:49:05;;;;;;;0.00;0.00;;;25.70;38.70;;;;;;5014336;28;20212;-48
2024/01/25 07:51:36;;;;;;;0.00;0.00;;;25.70;38.80;;;;;;5014528;28;20211;-46
2024/01/25 07:54:06;;;;;;;0.10;0.10;;;25.70;38.80;;;;;;5013824;28;20221;-44
2024/01/25 07:56:41;;;;;;;0.10;0.10;;;25.70;38.80;;;;;;5014377;28;20201;-45
2024/01/25 07:59:12;;;;;;;0.00;0.00;;;25.70;38.80;;;;;;5014469;28;20258;-47
2024/01/25 08:01:42;;;;;;;0.00;0.00;;;25.70;38.60;;;;;;5014096;28;20193;-48
2024/01/25 08:04:13;;;;;;;0.00;0.00;;;25.70;38.60;;;;;;5009271;28;20252;-44
2024/01/25 08:06:44;;;;;;;0.00;0.00;;;25.70;38.60;;;;;;5008880;28;20631;-44
2024/01/25 08:09:14;;;;;;;0.00;0.00;;;25.60;38.50;;;;;;5008869;28;20661;-45
2024/01/25 08:11:47;;;;;;;0.00;0.00;;;25.60;38.50;;;;;;5010667;28;20255;-45
2024/01/25 08:14:18;;;;;;;0.00;0.00;;;25.60;38.50;;;;;;5011067;28;20228;-45
2024/01/25 08:16:49;;;;;;;0.00;0.00;;;25.60;38.50;;;;;;5009582;28;20203;-48
2024/01/25 08:19:19;;;;;;;0.00;0.00;;;25.60;38.50;;;;;;5010725;28;20216;-48
2024/01/25 08:21:50;;;;;;;0.00;0.00;;;25.60;38.50;;;;;;5008899;28;20205;-47
2024/01/25 08:24:21;;;;;;;0.00;0.00;;;25.50;38.50;;;;;;5010152;28;20217;-45
2024/01/25 08:26:53;;;;;;;0.10;0.10;;;25.50;38.60;;;;;;5008172;28;20200;-48
2024/01/25 08:29:24;;;;;;;0.00;0.00;;;25.50;38.60;;;;;;5010161;28;20235;-44
2024/01/25 08:31:54;;;;;;;0.00;0.00;;;25.50;38.70;;;;;;5008497;28;20645;-45
2024/01/25 08:34:25;;;;;;;0.00;0.00;;;25.40;38.70;;;;;;5008377;28;20700;-45
2024/01/25 08:36:56;;;;;;;0.00;0.00;;;25.40;38.70;;;;;;5009601;28;20668;-45
2024/01/25 08:39:26;;;;;;;0.00;0.00;;;25.40;38.80;;;;;;5010177;28;20561;-46
2024/01/25 08:42:01;;;;;;;0.00;0.00;;;25.40;38.80;;;;;;5009614;28;20200;-45
2024/01/25 08:44:32;;;;;;;0.00;0.00;;;25.40;38.80;;;;;;5007831;28;20220;-49
2024/01/25 08:47:03;;;;;;;0.00;0.00;;;25.40;38.90;;;;;;5008462;28;20208;-49
2024/01/25 08:49:33;;;;;;;0.00;0.00;;;25.30;38.80;;;;;;5008438;28;20209;-44
2024/01/25 08:52:06;;;;;;;0.00;0.00;;;25.30;38.80;;;;;;5009236;28;20684;-48
2024/01/25 08:54:37;;;;;;;0.00;0.00;;;25.30;39.50;;;;;;5008195;28;20287;-47
2024/01/25 08:57:10;;;;;;;0.00;0.00;;;25.30;38.90;;;;;;5008921;28;20196;-46
2024/01/25 08:59:41;;;;;;;0.00;0.00;;;25.30;38.90;;;;;;5008174;28;20203;-46
2024/01/25 09:02:11;;;;;;;0.00;0.00;;;25.30;38.90;;;;;;5008238;28;20201;-47
2024/01/25 09:04:43;;;;;;;0.00;0.00;;;25.30;38.90;;;;;;5009276;28;20224;-44
2024/01/25 09:07:13;;;;;;;0.00;0.00;;;25.30;38.90;;;;;;5008424;28;20216;-44
2024/01/25 09:09:44;;;;;;;0.00;0.00;;;25.20;38.90;;;;;;5009414;28;20203;-44
2024/01/25 09:12:17;;;;;;;0.00;0.00;;;25.30;38.90;;;;;;5007858;28;20212;-44
2024/01/25 09:14:47;;;;;;;0.00;0.00;;;25.20;38.90;;;;;;5009195;28;20229;-44
2024/01/25 09:17:21;;;;;;;0.05;0.05;;;25.20;39.00;;;;;;5008558;28;20201;-44
2024/01/25 09:19:52;;;;;;;0.00;0.00;;;25.10;38.90;;;;;;5009006;28;20209;-50
2024/01/25 09:22:23;;;;;;;0.00;0.00;;;25.10;38.90;;;;;;5008602;28;20201;-51
2024/01/25 09:24:54;;;;;;;0.00;0.00;;;25.10;39.00;;;;;;5006485;28;20574;-52
2024/01/25 09:27:26;;;;;;;0.00;0.00;;;25.10;39.10;;;;;;5008987;28;20213;-45
2024/01/25 09:29:57;;;;;;;0.00;0.00;;;25.10;39.10;;;;;;5007936;28;20291;-44
2024/01/25 09:32:27;;;;;;;0.00;0.00;;;25.10;39.10;;;;;;5009530;28;20671;-44
2024/01/25 09:34:58;;;;;;;0.00;0.00;;;25.10;39.10;;;;;;5007128;28;20573;-46
2024/01/25 09:37:29;;;;;;;0.10;0.10;;;25.10;39.10;;;;;;5008629;28;20204;-46
2024/01/25 09:40:00;;;;;;;0.00;0.00;;;25.00;39.10;;;;;;5007305;28;20228;-45
2024/01/25 09:42:32;;;;;;;0.10;0.10;;;25.00;39.10;;;;;;5008658;28;20244;-46
2024/01/25 09:45:04;;;;;;;0.00;0.00;;;25.00;39.10;;;;;;5007608;28;20432;-44
2024/01/25 09:47:35;;;;;;;0.00;0.00;;;25.00;39.20;;;;;;4993504;28;20495;-44
2024/01/25 09:50:06;;;;;;;0.00;0.00;;;25.00;39.20;;;;;;5008705;28;20216;-45
2024/01/25 09:55:07;;;;;;;0.03;0.03;;;24.90;39.80;;;;;;5026741;28;20232;-47
2024/01/25 09:57:40;;;;;;;0.10;0.10;;;24.90;39.30;;;;;;5018520;28;20207;-48
2024/01/25 10:00:11;;;;;;;0.10;0.10;;;24.90;39.20;;;;;;5027578;28;20197;-49
2024/01/25 10:02:42;;;;;;;0.00;0.00;;;24.90;39.30;;;;;;5026762;28;20204;-48
2024/01/25 10:05:12;;;;;;;0.00;0.00;;;24.80;39.20;;;;;;5026727;28;20227;-47
2024/01/25 10:07:44;;;;;;;0.03;0.03;;;24.80;39.30;;;;;;5027007;28;20200;-46
2024/01/25 10:10:15;;;;;;;0.00;0.00;;;24.80;39.30;;;;;;5027253;28;20573;-49
2024/01/25 10:12:47;;;;;;;0.00;0.00;;;24.80;39.30;;;;;;5027725;28;20203;-49
2024/01/25 10:15:18;;;;;;;0.00;0.00;;;24.70;39.30;;;;;;5027240;28;20236;-47
2024/01/25 10:17:49;;;;;;;0.00;0.00;;;24.70;39.30;;;;;;5027627;28;20196;-47
2024/01/25 10:20:21;;;;;;;0.00;0.00;;;24.70;39.30;;;;;;5026907;28;20250;-47
2024/01/25 10:22:52;;;;;;;0.00;0.00;;;24.70;39.30;;;;;;5027648;28;20262;-48
2024/01/25 10:25:22;;;;;;;0.00;0.00;;;24.70;39.40;;;;;;5026850;28;20210;-49
2024/01/25 10:27:55;;;;;;;0.00;0.00;;;24.60;39.40;;;;;;5027982;28;20603;-47
2024/01/25 10:30:27;;;;;;;0.00;0.00;;;24.60;39.30;;;;;;5027007;28;20196;-47
2024/01/25 10:32:59;;;;;;;0.00;0.00;;;24.60;39.40;;;;;;5028261;28;20224;-47
2024/01/25 10:35:29;;;;;;;0.00;0.00;;;24.60;39.40;;;;;;5045723;28;20424;-48
2024/01/25 10:38:00;;;;;;;0.00;0.00;;;24.60;39.40;;;;;;5047493;28;20199;-48
2024/01/25 10:40:32;;;;;;;0.08;0.08;;;24.60;39.50;;;;;;5042711;28;20203;-48
2024/01/25 10:43:04;;;;;;;0.00;0.00;;;24.50;39.40;;;;;;5027707;28;20215;-48
2024/01/25 10:45:35;;;;;;;0.10;0.10;;;24.50;39.50;;;;;;5027192;28;20220;-48
2024/01/25 10:48:07;;;;;;;0.10;0.10;;;24.50;39.50;;;;;;5027707;28;20667;-48
2024/01/25 10:50:39;;;;;;;0.00;0.00;;;24.40;39.50;;;;;;5031555;28;20207;-48
2024/01/25 10:53:12;;;;;;;0.10;0.10;;;24.40;39.50;;;;;;5039625;23;20224;-45
2024/01/25 10:55:42;;;;;;;0.10;0.10;;;24.40;39.60;;;;;;5011699;28;20224;-47
2024/01/25 10:58:16;;;;;;;0.00;0.00;;;24.40;39.60;;;;;;5012010;28;20201;-46
2024/01/25 11:00:55;;;;;;;0.00;0.00;;;24.30;39.60;;;;;;5011082;28;20207;-48
2024/01/25 11:03:30;;;;;;;0.00;0.00;;;24.30;39.70;;;;;;5011822;28;20330;-46
2024/01/25 11:06:11;;;;;;;0.00;0.00;;;24.30;39.70;;;;;;5011303;28;20280;-46
2024/01/25 11:08:42;;;;;;;0.00;0.00;;;24.30;39.70;;;;;;5011354;28;20196;-43
2024/01/25 11:11:15;;;;;;;0.00;0.00;;;24.30;39.70;;;;;;5012073;28;20200;-45
2024/01/25 11:13:48;;;;;;;0.00;0.00;;;24.20;39.70;;;;;;5015509;28;20228;-46
2024/01/25 11:16:20;;;;;;;0.00;0.00;;;24.30;39.80;;;;;;5016049;28;20232;-46
2024/01/25 11:18:53;;;;;;;0.00;0.00;;;24.20;39.70;;;;;;5014515;28;20200;-44
2024/01/25 11:21:29;;;;;;;0.00;0.00;;;24.20;39.80;;;;;;5007144;28;20207;-45
2024/01/25 11:24:06;;;;;;;0.00;0.00;;;24.20;39.80;;;;;;5015154;28;20216;-46
2024/01/25 11:26:37;;;;;;;0.00;0.00;;;24.20;40.40;;;;;;5014939;28;20196;-46
2024/01/25 11:29:10;;;;;;;0.00;0.00;;;24.20;39.90;;;;;;5014823;28;20200;-44
2024/01/25 11:31:40;;;;;;;0.00;0.00;;;24.10;39.80;;;;;;5014989;28;20200;-46
2024/01/25 11:34:14;;;;;;;0.05;0.05;;;24.10;39.90;;;;;;5014557;28;20229;-46
2024/01/25 11:36:45;;;;;;;0.00;0.00;;;24.10;39.90;;;;;;5014270;28;20696;-48
2024/01/25 11:39:16;;;;;;;0.00;0.00;;;24.10;40.00;;;;;;5014747;28;20197;-48
2024/01/25 11:41:48;;;;;;;0.10;0.10;;;24.00;39.90;;;;;;5014795;28;20203;-46
2024/01/25 11:44:23;;;;;;;0.08;0.08;;;24.00;40.00;;;;;;5014412;28;20224;-46
2024/01/25 11:46:56;;;;;;;0.00;0.00;;;24.00;40.00;;;;;;5000342;28;20188;-47
2024/01/25 11:49:28;;;;;;;0.10;0.10;;;23.90;40.00;;;;;;5012252;28;20197;-44
2024/01/25 11:52:02;;;;;;;0.00;0.00;;;23.90;40.10;;;;;;5014072;28;20185;-46
2024/01/25 11:54:32;;;;;;;0.00;0.00;;;23.90;40.10;;;;;;5014359;28;20580;-45
2024/01/25 11:57:03;;;;;;;0.03;0.03;;;23.90;40.10;;;;;;5011611;28;20639;-46
2024/01/25 11:59:36;;;;;;;0.00;0.00;;;23.80;40.10;;;;;;5013894;28;20197;-47
2024/01/25 12:02:07;;;;;;;0.00;0.00;;;23.80;40.20;;;;;;5011751;28;20189;-44
2024/01/25 12:04:38;;;;;;;0.00;0.00;;;23.80;40.20;;;;;;5013662;28;20205;-46
2024/01/25 12:07:09;;;;;;;0.00;0.00;;;23.80;40.20;;;;;;5013888;28;20641;-46
2024/01/25 12:09:40;;;;;;;0.00;0.00;;;23.80;40.20;;;;;;5013725;28;20213;-47
2024/01/25 12:12:12;;;;;;;0.10;0.10;;;23.80;40.20;;;;;;5013781;28;20360;-44
2024/01/25 12:14:45;;;;;;;0.10;0.10;;;23.80;40.20;;;;;;5010783;28;20211;-46
2024/01/25 12:17:16;;;;;;;0.00;0.00;;;23.80;40.20;;;;;;5013157;28;20696;-45
2024/01/25 12:19:47;;;;;;;0.00;0.00;;;23.70;40.10;;;;;;5013957;28;20210;-44
2024/01/25 12:22:24;;;;;;;0.00;0.00;;;23.70;40.20;;;;;;5013682;28;20185;-44
2024/01/25 12:24:57;;;;;;;0.00;0.00;;;23.70;40.20;;;;;;5013857;28;20212;-48
2024/01/25 12:27:30;;;;;;;0.00;0.00;;;23.70;40.20;;;;;;5012103;28;20197;-46
2024/01/25 12:30:03;;;;;;;0.10;0.10;;;23.60;40.20;;;;;;5014426;28;20641;-45
2024/01/25 12:32:34;;;;;;;0.00;0.00;;;23.60;40.30;;;;;;5016968;28;20196;-44
2024/01/25 12:35:07;;;;;;;0.00;0.00;;;23.60;40.30;;;;;;5033495;28;20196;-46
2024/01/25 12:37:38;;;;;;;0.00;0.00;;;23.60;40.40;;;;;;5033574;28;20645;-47
2024/01/25 12:40:10;;;;;;;0.00;0.00;;;23.60;40.40;;;;;;5033589;28;20200;-46
2024/01/25 12:42:40;;;;;;;0.10;0.10;;;23.50;40.40;;;;;;5033482;28;20193;-44
2024/01/25 12:45:13;;;;;;;0.00;0.00;;;23.50;40.40;;;;;;5025173;28;20189;-46
2024/01/25 12:47:44;;;;;;;0.10;0.10;;;23.50;40.50;;;;;;5014130;28;20562;-46
2024/01/25 12:50:15;;;;;;;0.10;0.10;;;23.50;40.50;;;;;;5013076;28;20197;-47
2024/01/25 12:55:17;;;;;;;0.03;0.03;;;23.50;40.50;;;;;;5011674;28;20209;-43
2024/01/25 12:57:46;;;;;;;0.00;0.00;;;23.40;40.50;;;;;;5013235;28;20548;-43
2024/01/25 13:00:19;;;;;;;0.10;0.10;;;23.40;40.50;;;;;;5012894;28;20657;-44
2024/01/25 13:02:50;;;;;;;0.00;0.00;;;23.40;40.50;;;;;;5013235;28;20203;-44
2024/01/25 13:05:21;;;;;;;0.00;0.00;;;23.40;40.50;;;;;;5013097;28;20290;-44
2024/01/25 13:07:51;;;;;;;0.10;0.10;;;23.40;40.50;;;;;;5013175;28;20197;-43
2024/01/25 13:10:22;;;;;;;0.05;0.05;;;23.40;40.50;;;;;;5013218;28;20197;-44
2024/01/25 13:12:53;;;;;;;0.10;0.10;;;23.40;40.50;;;;;;5012469;28;20197;-43
2024/01/25 13:15:26;;;;;;;0.00;0.00;;;23.30;40.50;;;;;;5013303;28;20205;-44